sensor_id;sensor_type;location;lat;lon;timestamp;P1;durP1;ratioP1;P2;durP2;ratioP2
33162;SDS011;29282;45.656;11.302;2023-12-14T00:01:14;4.28;;;3.88;;
33162;SDS011;29282;45.656;11.302;2023-12-14T00:03:40;6.50;;;4.03;;
33162;SDS011;29282;45.656;11.302;2023-12-14T00:06:11;4.18;;;3.67;;
33162;SDS011;29282;45.656;11.302;2023-12-14T00:08:37;5.28;;;4.20;;
33162;SDS011;29282;45.656;11.302;2023-12-14T00:11:06;4.63;;;3.90;;
33162;SDS011;29282;45.656;11.302;2023-12-14T00:13:33;4.68;;;3.90;;
33162;SDS011;29282;45.656;11.302;2023-12-14T00:15:59;5.43;;;3.90;;
33162;SDS011;29282;45.656;11.302;2023-12-14T00:18:25;4.32;;;3.80;;
33162;SDS011;29282;45.656;11.302;2023-12-14T00:20:50;5.05;;;3.75;;
33162;SDS011;29282;45.656;11.302;2023-12-14T00:23:16;5.47;;;3.83;;
33162;SDS011;29282;45.656;11.302;2023-12-14T00:25:42;5.20;;;4.13;;
33162;SDS011;29282;45.656;11.302;2023-12-14T00:28:07;5.00;;;3.90;;
33162;SDS011;29282;45.656;11.302;2023-12-14T00:30:33;5.05;;;3.80;;
33162;SDS011;29282;45.656;11.302;2023-12-14T00:32:58;4.10;;;3.55;;
33162;SDS011;29282;45.656;11.302;2023-12-14T00:35:24;5.22;;;4.10;;
33162;SDS011;29282;45.656;11.302;2023-12-14T00:37:49;3.83;;;3.47;;
33162;SDS011;29282;45.656;11.302;2023-12-14T00:40:15;4.78;;;4.05;;
33162;SDS011;29282;45.656;11.302;2023-12-14T00:42:40;4.20;;;3.80;;
33162;SDS011;29282;45.656;11.302;2023-12-14T00:45:06;6.18;;;3.90;;
33162;SDS011;29282;45.656;11.302;2023-12-14T00:47:32;4.65;;;3.63;;
33162;SDS011;29282;45.656;11.302;2023-12-14T00:50:00;4.35;;;3.65;;
33162;SDS011;29282;45.656;11.302;2023-12-14T00:52:25;4.90;;;3.83;;
33162;SDS011;29282;45.656;11.302;2023-12-14T00:54:51;4.65;;;3.55;;
33162;SDS011;29282;45.656;11.302;2023-12-14T00:57:16;6.32;;;3.75;;
33162;SDS011;29282;45.656;11.302;2023-12-14T00:59:42;4.72;;;3.67;;
33162;SDS011;29282;45.656;11.302;2023-12-14T01:02:08;4.03;;;3.60;;
33162;SDS011;29282;45.656;11.302;2023-12-14T01:04:33;4.90;;;3.60;;
33162;SDS011;29282;45.656;11.302;2023-12-14T01:06:59;3.72;;;3.30;;
33162;SDS011;29282;45.656;11.302;2023-12-14T01:09:24;3.80;;;3.40;;
33162;SDS011;29282;45.656;11.302;2023-12-14T01:11:50;4.68;;;3.70;;
33162;SDS011;29282;45.656;11.302;2023-12-14T01:14:16;4.82;;;3.75;;
33162;SDS011;29282;45.656;11.302;2023-12-14T01:16:41;3.78;;;3.30;;
33162;SDS011;29282;45.656;11.302;2023-12-14T01:19:06;4.45;;;3.70;;
33162;SDS011;29282;45.656;11.302;2023-12-14T01:21:32;3.88;;;3.33;;
33162;SDS011;29282;45.656;11.302;2023-12-14T01:23:58;4.50;;;3.60;;
33162;SDS011;29282;45.656;11.302;2023-12-14T01:26:25;4.18;;;3.53;;
33162;SDS011;29282;45.656;11.302;2023-12-14T01:28:51;4.95;;;3.60;;
33162;SDS011;29282;45.656;11.302;2023-12-14T01:31:17;3.83;;;3.45;;
33162;SDS011;29282;45.656;11.302;2023-12-14T01:33:42;4.25;;;3.50;;
33162;SDS011;29282;45.656;11.302;2023-12-14T01:36:08;5.00;;;3.78;;
33162;SDS011;29282;45.656;11.302;2023-12-14T01:38:33;3.60;;;3.30;;
33162;SDS011;29282;45.656;11.302;2023-12-14T01:40:59;3.55;;;3.25;;
33162;SDS011;29282;45.656;11.302;2023-12-14T01:43:25;3.35;;;3.05;;
33162;SDS011;29282;45.656;11.302;2023-12-14T01:45:51;4.20;;;3.63;;
33162;SDS011;29282;45.656;11.302;2023-12-14T01:48:16;3.60;;;3.30;;
33162;SDS011;29282;45.656;11.302;2023-12-14T01:50:42;4.45;;;3.40;;
33162;SDS011;29282;45.656;11.302;2023-12-14T01:53:07;4.13;;;3.58;;
33162;SDS011;29282;45.656;11.302;2023-12-14T01:55:33;3.22;;;2.92;;
33162;SDS011;29282;45.656;11.302;2023-12-14T01:57:59;4.32;;;3.25;;
33162;SDS011;29282;45.656;11.302;2023-12-14T02:03:02;3.67;;;3.33;;
33162;SDS011;29282;45.656;11.302;2023-12-14T02:05:28;3.70;;;3.38;;
33162;SDS011;29282;45.656;11.302;2023-12-14T02:07:53;3.47;;;3.17;;
33162;SDS011;29282;45.656;11.302;2023-12-14T02:10:19;3.65;;;3.30;;
33162;SDS011;29282;45.656;11.302;2023-12-14T02:12:44;3.38;;;3.08;;
33162;SDS011;29282;45.656;11.302;2023-12-14T02:15:10;4.35;;;3.47;;
33162;SDS011;29282;45.656;11.302;2023-12-14T02:17:35;3.42;;;3.08;;
33162;SDS011;29282;45.656;11.302;2023-12-14T02:20:01;3.30;;;3.00;;
33162;SDS011;29282;45.656;11.302;2023-12-14T02:22:26;4.03;;;3.30;;
33162;SDS011;29282;45.656;11.302;2023-12-14T02:24:51;3.08;;;2.78;;
33162;SDS011;29282;45.656;11.302;2023-12-14T02:27:17;3.97;;;3.42;;
33162;SDS011;29282;45.656;11.302;2023-12-14T02:29:42;4.35;;;3.38;;
33162;SDS011;29282;45.656;11.302;2023-12-14T02:32:08;3.45;;;3.10;;
33162;SDS011;29282;45.656;11.302;2023-12-14T02:34:34;3.50;;;3.17;;
33162;SDS011;29282;45.656;11.302;2023-12-14T02:36:59;3.30;;;3.00;;
33162;SDS011;29282;45.656;11.302;2023-12-14T02:39:25;3.83;;;3.40;;
33162;SDS011;29282;45.656;11.302;2023-12-14T02:41:50;3.33;;;3.00;;
33162;SDS011;29282;45.656;11.302;2023-12-14T02:44:16;3.95;;;3.13;;
33162;SDS011;29282;45.656;11.302;2023-12-14T02:46:41;3.95;;;3.22;;
33162;SDS011;29282;45.656;11.302;2023-12-14T02:49:07;3.85;;;3.10;;
33162;SDS011;29282;45.656;11.302;2023-12-14T02:51:32;3.25;;;2.95;;
33162;SDS011;29282;45.656;11.302;2023-12-14T02:53:57;3.25;;;2.95;;
33162;SDS011;29282;45.656;11.302;2023-12-14T02:56:23;3.75;;;3.20;;
33162;SDS011;29282;45.656;11.302;2023-12-14T02:58:49;3.60;;;3.20;;
33162;SDS011;29282;45.656;11.302;2023-12-14T03:01:18;3.28;;;2.90;;
33162;SDS011;29282;45.656;11.302;2023-12-14T03:03:45;3.58;;;3.03;;
33162;SDS011;29282;45.656;11.302;2023-12-14T03:06:11;3.53;;;3.10;;
33162;SDS011;29282;45.656;11.302;2023-12-14T03:08:36;3.53;;;3.22;;
33162;SDS011;29282;45.656;11.302;2023-12-14T03:11:02;3.45;;;2.97;;
33162;SDS011;29282;45.656;11.302;2023-12-14T03:13:28;3.13;;;2.83;;
33162;SDS011;29282;45.656;11.302;2023-12-14T03:15:53;3.00;;;2.70;;
33162;SDS011;29282;45.656;11.302;2023-12-14T03:18:19;3.45;;;3.08;;
33162;SDS011;29282;45.656;11.302;2023-12-14T03:20:44;3.75;;;3.40;;
33162;SDS011;29282;45.656;11.302;2023-12-14T03:23:10;3.08;;;2.70;;
33162;SDS011;29282;45.656;11.302;2023-12-14T03:25:35;3.05;;;2.75;;
33162;SDS011;29282;45.656;11.302;2023-12-14T03:28:01;2.90;;;2.60;;
33162;SDS011;29282;45.656;11.302;2023-12-14T03:30:26;3.42;;;3.05;;
33162;SDS011;29282;45.656;11.302;2023-12-14T03:32:52;3.40;;;3.00;;
33162;SDS011;29282;45.656;11.302;2023-12-14T03:35:17;2.65;;;2.45;;
33162;SDS011;29282;45.656;11.302;2023-12-14T03:37:43;3.15;;;2.85;;
33162;SDS011;29282;45.656;11.302;2023-12-14T03:40:08;3.28;;;2.90;;
33162;SDS011;29282;45.656;11.302;2023-12-14T03:42:34;3.10;;;2.58;;
33162;SDS011;29282;45.656;11.302;2023-12-14T03:45:00;3.40;;;3.10;;
33162;SDS011;29282;45.656;11.302;2023-12-14T03:47:26;3.30;;;2.80;;
33162;SDS011;29282;45.656;11.302;2023-12-14T03:49:51;3.35;;;2.88;;
33162;SDS011;29282;45.656;11.302;2023-12-14T03:52:17;3.50;;;2.80;;
33162;SDS011;29282;45.656;11.302;2023-12-14T03:54:42;3.17;;;2.88;;
33162;SDS011;29282;45.656;11.302;2023-12-14T03:57:08;3.33;;;3.00;;
33162;SDS011;29282;45.656;11.302;2023-12-14T03:59:33;3.40;;;3.10;;
33162;SDS011;29282;45.656;11.302;2023-12-14T04:01:59;3.03;;;2.55;;
33162;SDS011;29282;45.656;11.302;2023-12-14T04:04:24;2.88;;;2.60;;
33162;SDS011;29282;45.656;11.302;2023-12-14T04:06:50;2.65;;;2.45;;
33162;SDS011;29282;45.656;11.302;2023-12-14T04:09:16;2.70;;;2.50;;
33162;SDS011;29282;45.656;11.302;2023-12-14T04:11:42;3.10;;;2.80;;
33162;SDS011;29282;45.656;11.302;2023-12-14T04:14:07;2.70;;;2.50;;
33162;SDS011;29282;45.656;11.302;2023-12-14T04:16:34;3.10;;;2.80;;
33162;SDS011;29282;45.656;11.302;2023-12-14T04:19:00;3.08;;;2.78;;
33162;SDS011;29282;45.656;11.302;2023-12-14T04:21:25;2.70;;;2.50;;
33162;SDS011;29282;45.656;11.302;2023-12-14T04:23:51;3.03;;;2.72;;
33162;SDS011;29282;45.656;11.302;2023-12-14T04:26:16;3.53;;;2.80;;
33162;SDS011;29282;45.656;11.302;2023-12-14T04:28:42;2.70;;;2.50;;
33162;SDS011;29282;45.656;11.302;2023-12-14T04:31:09;2.90;;;2.60;;
33162;SDS011;29282;45.656;11.302;2023-12-14T04:33:35;2.50;;;2.30;;
33162;SDS011;29282;45.656;11.302;2023-12-14T04:36:01;3.08;;;2.78;;
33162;SDS011;29282;45.656;11.302;2023-12-14T04:38:27;2.72;;;2.50;;
33162;SDS011;29282;45.656;11.302;2023-12-14T04:40:52;2.50;;;2.30;;
33162;SDS011;29282;45.656;11.302;2023-12-14T04:43:17;3.10;;;2.80;;
33162;SDS011;29282;45.656;11.302;2023-12-14T04:45:43;2.67;;;2.47;;
33162;SDS011;29282;45.656;11.302;2023-12-14T04:48:09;2.63;;;2.42;;
33162;SDS011;29282;45.656;11.302;2023-12-14T04:50:34;2.53;;;2.33;;
33162;SDS011;29282;45.656;11.302;2023-12-14T04:53:00;2.60;;;2.40;;
33162;SDS011;29282;45.656;11.302;2023-12-14T04:55:25;2.47;;;2.10;;
33162;SDS011;29282;45.656;11.302;2023-12-14T04:57:51;2.70;;;2.30;;
33162;SDS011;29282;45.656;11.302;2023-12-14T05:00:16;2.80;;;2.50;;
33162;SDS011;29282;45.656;11.302;2023-12-14T05:02:45;2.95;;;2.55;;
33162;SDS011;29282;45.656;11.302;2023-12-14T05:05:13;2.67;;;2.30;;
33162;SDS011;29282;45.656;11.302;2023-12-14T05:07:38;2.50;;;2.30;;
33162;SDS011;29282;45.656;11.302;2023-12-14T05:10:04;2.53;;;2.33;;
33162;SDS011;29282;45.656;11.302;2023-12-14T05:12:30;2.97;;;2.67;;
33162;SDS011;29282;45.656;11.302;2023-12-14T05:14:56;2.40;;;2.20;;
33162;SDS011;29282;45.656;11.302;2023-12-14T05:17:22;2.72;;;2.15;;
33162;SDS011;29282;45.656;11.302;2023-12-14T05:19:48;2.42;;;2.22;;
33162;SDS011;29282;45.656;11.302;2023-12-14T05:22:13;2.55;;;2.35;;
33162;SDS011;29282;45.656;11.302;2023-12-14T05:24:39;2.67;;;2.35;;
33162;SDS011;29282;45.656;11.302;2023-12-14T05:27:04;2.38;;;2.17;;
33162;SDS011;29282;45.656;11.302;2023-12-14T05:29:30;2.63;;;2.17;;
33162;SDS011;29282;45.656;11.302;2023-12-14T05:31:56;2.45;;;2.20;;
33162;SDS011;29282;45.656;11.302;2023-12-14T05:34:22;2.58;;;2.38;;
33162;SDS011;29282;45.656;11.302;2023-12-14T05:36:47;2.80;;;2.15;;
33162;SDS011;29282;45.656;11.302;2023-12-14T05:39:13;2.50;;;2.30;;
33162;SDS011;29282;45.656;11.302;2023-12-14T05:41:39;2.83;;;2.50;;
33162;SDS011;29282;45.656;11.302;2023-12-14T05:44:06;2.83;;;2.25;;
33162;SDS011;29282;45.656;11.302;2023-12-14T05:46:31;2.38;;;2.17;;
33162;SDS011;29282;45.656;11.302;2023-12-14T05:48:57;2.25;;;2.05;;
33162;SDS011;29282;45.656;11.302;2023-12-14T05:51:29;2.45;;;2.25;;
33162;SDS011;29282;45.656;11.302;2023-12-14T05:53:55;2.78;;;2.10;;
33162;SDS011;29282;45.656;11.302;2023-12-14T05:56:21;2.60;;;2.40;;
33162;SDS011;29282;45.656;11.302;2023-12-14T05:58:46;2.40;;;2.20;;
33162;SDS011;29282;45.656;11.302;2023-12-14T06:01:12;2.58;;;2.15;;
33162;SDS011;29282;45.656;11.302;2023-12-14T06:03:38;2.33;;;2.13;;
33162;SDS011;29282;45.656;11.302;2023-12-14T06:06:03;2.30;;;2.10;;
33162;SDS011;29282;45.656;11.302;2023-12-14T06:08:29;2.33;;;2.13;;
33162;SDS011;29282;45.656;11.302;2023-12-14T06:10:54;2.33;;;2.00;;
33162;SDS011;29282;45.656;11.302;2023-12-14T06:13:20;2.45;;;2.05;;
33162;SDS011;29282;45.656;11.302;2023-12-14T06:15:46;2.95;;;2.50;;
33162;SDS011;29282;45.656;11.302;2023-12-14T06:18:12;2.35;;;2.15;;
33162;SDS011;29282;45.656;11.302;2023-12-14T06:20:38;2.40;;;2.20;;
33162;SDS011;29282;45.656;11.302;2023-12-14T06:23:05;2.20;;;2.00;;
33162;SDS011;29282;45.656;11.302;2023-12-14T06:25:31;2.40;;;2.20;;
33162;SDS011;29282;45.656;11.302;2023-12-14T06:27:56;2.25;;;2.05;;
33162;SDS011;29282;45.656;11.302;2023-12-14T06:30:22;2.10;;;1.95;;
33162;SDS011;29282;45.656;11.302;2023-12-14T06:32:47;2.60;;;2.17;;
33162;SDS011;29282;45.656;11.302;2023-12-14T06:35:13;2.15;;;1.95;;
33162;SDS011;29282;45.656;11.302;2023-12-14T06:37:38;2.25;;;2.05;;
33162;SDS011;29282;45.656;11.302;2023-12-14T06:40:07;2.10;;;1.90;;
33162;SDS011;29282;45.656;11.302;2023-12-14T06:42:33;2.38;;;2.17;;
33162;SDS011;29282;45.656;11.302;2023-12-14T06:44:59;2.22;;;2.03;;
33162;SDS011;29282;45.656;11.302;2023-12-14T06:47:27;2.33;;;2.13;;
33162;SDS011;29282;45.656;11.302;2023-12-14T06:49:53;2.25;;;2.05;;
33162;SDS011;29282;45.656;11.302;2023-12-14T06:52:18;2.50;;;2.30;;
33162;SDS011;29282;45.656;11.302;2023-12-14T06:54:44;2.22;;;2.03;;
33162;SDS011;29282;45.656;11.302;2023-12-14T06:57:10;2.50;;;2.30;;
33162;SDS011;29282;45.656;11.302;2023-12-14T06:59:35;2.30;;;2.10;;
33162;SDS011;29282;45.656;11.302;2023-12-14T07:02:01;2.20;;;2.00;;
33162;SDS011;29282;45.656;11.302;2023-12-14T07:04:26;2.58;;;2.28;;
33162;SDS011;29282;45.656;11.302;2023-12-14T07:06:52;2.30;;;2.00;;
33162;SDS011;29282;45.656;11.302;2023-12-14T07:09:18;2.88;;;2.28;;
33162;SDS011;29282;45.656;11.302;2023-12-14T07:11:44;2.55;;;2.25;;
33162;SDS011;29282;45.656;11.302;2023-12-14T07:14:09;2.33;;;2.10;;
33162;SDS011;29282;45.656;11.302;2023-12-14T07:16:35;2.20;;;2.00;;
33162;SDS011;29282;45.656;11.302;2023-12-14T07:19:01;2.35;;;2.15;;
33162;SDS011;29282;45.656;11.302;2023-12-14T07:21:26;4.43;;;2.30;;
33162;SDS011;29282;45.656;11.302;2023-12-14T07:23:52;2.33;;;2.13;;
33162;SDS011;29282;45.656;11.302;2023-12-14T07:26:17;2.42;;;2.13;;
33162;SDS011;29282;45.656;11.302;2023-12-14T07:28:43;3.00;;;2.42;;
33162;SDS011;29282;45.656;11.302;2023-12-14T07:31:08;2.63;;;2.22;;
33162;SDS011;29282;45.656;11.302;2023-12-14T07:33:34;3.83;;;2.15;;
33162;SDS011;29282;45.656;11.302;2023-12-14T07:36:00;7.88;;;3.15;;
33162;SDS011;29282;45.656;11.302;2023-12-14T07:38:26;4.30;;;2.70;;
33162;SDS011;29282;45.656;11.302;2023-12-14T07:40:51;14.90;;;3.20;;
33162;SDS011;29282;45.656;11.302;2023-12-14T07:43:17;15.05;;;3.60;;
33162;SDS011;29282;45.656;11.302;2023-12-14T07:45:43;7.72;;;3.10;;
33162;SDS011;29282;45.656;11.302;2023-12-14T07:48:09;11.90;;;3.95;;
33162;SDS011;29282;45.656;11.302;2023-12-14T07:50:34;12.25;;;4.13;;
33162;SDS011;29282;45.656;11.302;2023-12-14T07:53:00;17.95;;;4.10;;
33162;SDS011;29282;45.656;11.302;2023-12-14T07:55:25;7.60;;;3.95;;
33162;SDS011;29282;45.656;11.302;2023-12-14T07:57:51;11.75;;;4.85;;
33162;SDS011;29282;45.656;11.302;2023-12-14T08:00:16;13.27;;;4.50;;
33162;SDS011;29282;45.656;11.302;2023-12-14T08:02:42;11.23;;;4.88;;
33162;SDS011;29282;45.656;11.302;2023-12-14T08:05:08;12.43;;;4.65;;
33162;SDS011;29282;45.656;11.302;2023-12-14T08:07:34;11.52;;;4.30;;
33162;SDS011;29282;45.656;11.302;2023-12-14T08:10:00;15.75;;;5.03;;
33162;SDS011;29282;45.656;11.302;2023-12-14T08:12:25;9.40;;;4.95;;
33162;SDS011;29282;45.656;11.302;2023-12-14T08:14:51;12.02;;;4.88;;
33162;SDS011;29282;45.656;11.302;2023-12-14T08:17:17;9.50;;;5.03;;
33162;SDS011;29282;45.656;11.302;2023-12-14T08:19:43;11.85;;;4.88;;
33162;SDS011;29282;45.656;11.302;2023-12-14T08:22:09;10.45;;;5.22;;
33162;SDS011;29282;45.656;11.302;2023-12-14T08:24:37;12.20;;;5.38;;
33162;SDS011;29282;45.656;11.302;2023-12-14T08:27:03;11.48;;;5.05;;
33162;SDS011;29282;45.656;11.302;2023-12-14T08:29:29;13.23;;;5.35;;
33162;SDS011;29282;45.656;11.302;2023-12-14T08:31:55;12.85;;;5.22;;
33162;SDS011;29282;45.656;11.302;2023-12-14T08:34:25;9.32;;;4.85;;
33162;SDS011;29282;45.656;11.302;2023-12-14T08:36:52;8.85;;;5.03;;
33162;SDS011;29282;45.656;11.302;2023-12-14T08:39:18;12.65;;;5.00;;
33162;SDS011;29282;45.656;11.302;2023-12-14T08:41:45;11.32;;;5.38;;
33162;SDS011;29282;45.656;11.302;2023-12-14T08:44:11;14.02;;;5.20;;
33162;SDS011;29282;45.656;11.302;2023-12-14T08:46:43;11.55;;;4.30;;
33162;SDS011;29282;45.656;11.302;2023-12-14T08:49:10;9.73;;;4.72;;
33162;SDS011;29282;45.656;11.302;2023-12-14T08:51:37;11.27;;;4.85;;
33162;SDS011;29282;45.656;11.302;2023-12-14T08:54:03;9.95;;;4.97;;
33162;SDS011;29282;45.656;11.302;2023-12-14T08:56:29;8.73;;;4.80;;
33162;SDS011;29282;45.656;11.302;2023-12-14T08:58:55;10.73;;;5.60;;
33162;SDS011;29282;45.656;11.302;2023-12-14T09:01:20;11.63;;;5.00;;
33162;SDS011;29282;45.656;11.302;2023-12-14T09:03:46;9.52;;;4.90;;
33162;SDS011;29282;45.656;11.302;2023-12-14T09:06:12;11.65;;;5.10;;
33162;SDS011;29282;45.656;11.302;2023-12-14T09:08:37;10.43;;;5.32;;
33162;SDS011;29282;45.656;11.302;2023-12-14T09:11:04;11.98;;;5.25;;
33162;SDS011;29282;45.656;11.302;2023-12-14T09:13:30;8.60;;;4.80;;
33162;SDS011;29282;45.656;11.302;2023-12-14T09:15:56;9.48;;;4.88;;
33162;SDS011;29282;45.656;11.302;2023-12-14T09:18:21;12.93;;;5.00;;
33162;SDS011;29282;45.656;11.302;2023-12-14T09:20:48;8.65;;;4.60;;
33162;SDS011;29282;45.656;11.302;2023-12-14T09:23:15;11.80;;;5.13;;
33162;SDS011;29282;45.656;11.302;2023-12-14T09:25:41;9.25;;;4.78;;
33162;SDS011;29282;45.656;11.302;2023-12-14T09:28:06;10.07;;;4.93;;
33162;SDS011;29282;45.656;11.302;2023-12-14T09:30:32;8.25;;;4.75;;
33162;SDS011;29282;45.656;11.302;2023-12-14T09:32:58;10.07;;;5.03;;
33162;SDS011;29282;45.656;11.302;2023-12-14T09:35:23;8.73;;;5.13;;
33162;SDS011;29282;45.656;11.302;2023-12-14T09:37:49;9.80;;;5.13;;
33162;SDS011;29282;45.656;11.302;2023-12-14T09:40:14;9.02;;;4.53;;
33162;SDS011;29282;45.656;11.302;2023-12-14T09:42:41;9.40;;;4.75;;
33162;SDS011;29282;45.656;11.302;2023-12-14T09:45:07;8.82;;;4.72;;
33162;SDS011;29282;45.656;11.302;2023-12-14T09:47:34;10.15;;;4.55;;
33162;SDS011;29282;45.656;11.302;2023-12-14T09:50:00;10.90;;;4.47;;
33162;SDS011;29282;45.656;11.302;2023-12-14T09:52:26;8.65;;;4.55;;
33162;SDS011;29282;45.656;11.302;2023-12-14T09:54:51;10.32;;;4.53;;
33162;SDS011;29282;45.656;11.302;2023-12-14T09:57:20;8.00;;;4.65;;
33162;SDS011;29282;45.656;11.302;2023-12-14T09:59:52;10.07;;;4.60;;
33162;SDS011;29282;45.656;11.302;2023-12-14T10:02:19;8.80;;;3.88;;
33162;SDS011;29282;45.656;11.302;2023-12-14T10:04:48;7.45;;;4.30;;
33162;SDS011;29282;45.656;11.302;2023-12-14T10:07:14;10.75;;;4.43;;
33162;SDS011;29282;45.656;11.302;2023-12-14T10:09:39;8.75;;;4.35;;
33162;SDS011;29282;45.656;11.302;2023-12-14T10:12:08;8.18;;;4.40;;
33162;SDS011;29282;45.656;11.302;2023-12-14T10:14:35;7.72;;;4.35;;
33162;SDS011;29282;45.656;11.302;2023-12-14T10:17:18;6.53;;;4.28;;
33162;SDS011;29282;45.656;11.302;2023-12-14T10:19:45;7.72;;;4.43;;
33162;SDS011;29282;45.656;11.302;2023-12-14T10:22:13;10.05;;;4.38;;
33162;SDS011;29282;45.656;11.302;2023-12-14T10:24:42;8.63;;;4.57;;
33162;SDS011;29282;45.656;11.302;2023-12-14T10:27:12;7.32;;;4.25;;
33162;SDS011;29282;45.656;11.302;2023-12-14T10:29:39;8.88;;;4.50;;
33162;SDS011;29282;45.656;11.302;2023-12-14T10:32:06;8.80;;;4.65;;
33162;SDS011;29282;45.656;11.302;2023-12-14T10:34:36;8.80;;;4.18;;
33162;SDS011;29282;45.656;11.302;2023-12-14T10:37:02;7.35;;;3.97;;
33162;SDS011;29282;45.656;11.302;2023-12-14T10:39:30;5.78;;;3.95;;
33162;SDS011;29282;45.656;11.302;2023-12-14T10:41:58;8.60;;;4.47;;
33162;SDS011;29282;45.656;11.302;2023-12-14T10:44:25;5.93;;;4.00;;
33162;SDS011;29282;45.656;11.302;2023-12-14T10:46:55;8.45;;;4.60;;
33162;SDS011;29282;45.656;11.302;2023-12-14T10:49:23;7.05;;;4.40;;
33162;SDS011;29282;45.656;11.302;2023-12-14T10:51:51;7.85;;;4.60;;
33162;SDS011;29282;45.656;11.302;2023-12-14T10:54:20;8.23;;;4.32;;
33162;SDS011;29282;45.656;11.302;2023-12-14T10:56:46;6.88;;;4.10;;
33162;SDS011;29282;45.656;11.302;2023-12-14T10:59:14;6.03;;;3.70;;
33162;SDS011;29282;45.656;11.302;2023-12-14T11:01:40;10.00;;;5.10;;
33162;SDS011;29282;45.656;11.302;2023-12-14T11:04:06;10.40;;;4.60;;
33162;SDS011;29282;45.656;11.302;2023-12-14T11:06:38;8.70;;;4.22;;
33162;SDS011;29282;45.656;11.302;2023-12-14T11:09:05;7.40;;;4.28;;
33162;SDS011;29282;45.656;11.302;2023-12-14T11:11:41;6.53;;;3.70;;
33162;SDS011;29282;45.656;11.302;2023-12-14T11:14:13;11.25;;;4.65;;
33162;SDS011;29282;45.656;11.302;2023-12-14T11:16:39;6.10;;;3.60;;
33162;SDS011;29282;45.656;11.302;2023-12-14T11:21:46;6.15;;;3.75;;
33162;SDS011;29282;45.656;11.302;2023-12-14T11:24:12;8.05;;;4.22;;
33162;SDS011;29282;45.656;11.302;2023-12-14T11:26:37;14.43;;;5.00;;
33162;SDS011;29282;45.656;11.302;2023-12-14T11:29:03;7.68;;;4.18;;
33162;SDS011;29282;45.656;11.302;2023-12-14T11:31:29;6.97;;;4.00;;
33162;SDS011;29282;45.656;11.302;2023-12-14T11:33:55;5.35;;;3.53;;
33162;SDS011;29282;45.656;11.302;2023-12-14T11:36:25;6.30;;;4.28;;
33162;SDS011;29282;45.656;11.302;2023-12-14T11:38:51;7.32;;;3.83;;
33162;SDS011;29282;45.656;11.302;2023-12-14T11:41:20;6.63;;;3.58;;
33162;SDS011;29282;45.656;11.302;2023-12-14T11:43:46;6.93;;;3.72;;
33162;SDS011;29282;45.656;11.302;2023-12-14T11:46:11;7.53;;;4.15;;
33162;SDS011;29282;45.656;11.302;2023-12-14T11:48:38;6.30;;;3.78;;
33162;SDS011;29282;45.656;11.302;2023-12-14T11:51:04;6.82;;;4.15;;
33162;SDS011;29282;45.656;11.302;2023-12-14T11:53:30;6.20;;;4.00;;
33162;SDS011;29282;45.656;11.302;2023-12-14T11:55:55;5.85;;;3.80;;
33162;SDS011;29282;45.656;11.302;2023-12-14T11:58:21;6.40;;;3.58;;
33162;SDS011;29282;45.656;11.302;2023-12-14T12:00:51;5.60;;;3.33;;
33162;SDS011;29282;45.656;11.302;2023-12-14T12:03:17;6.15;;;3.83;;
33162;SDS011;29282;45.656;11.302;2023-12-14T12:05:47;7.00;;;3.40;;
33162;SDS011;29282;45.656;11.302;2023-12-14T12:08:15;7.53;;;4.00;;
33162;SDS011;29282;45.656;11.302;2023-12-14T12:10:43;5.88;;;3.88;;
33162;SDS011;29282;45.656;11.302;2023-12-14T12:13:13;6.97;;;3.72;;
33162;SDS011;29282;45.656;11.302;2023-12-14T12:15:39;6.97;;;3.88;;
33162;SDS011;29282;45.656;11.302;2023-12-14T12:18:05;10.02;;;4.47;;
33162;SDS011;29282;45.656;11.302;2023-12-14T12:20:32;7.45;;;4.20;;
33162;SDS011;29282;45.656;11.302;2023-12-14T12:22:58;7.38;;;4.32;;
33162;SDS011;29282;45.656;11.302;2023-12-14T12:25:23;8.65;;;3.58;;
33162;SDS011;29282;45.656;11.302;2023-12-14T12:27:49;7.40;;;4.28;;
33162;SDS011;29282;45.656;11.302;2023-12-14T12:30:14;8.75;;;3.90;;
33162;SDS011;29282;45.656;11.302;2023-12-14T12:32:40;7.93;;;4.05;;
33162;SDS011;29282;45.656;11.302;2023-12-14T12:35:07;7.47;;;3.90;;
33162;SDS011;29282;45.656;11.302;2023-12-14T12:37:33;11.35;;;3.85;;
33162;SDS011;29282;45.656;11.302;2023-12-14T12:39:58;8.38;;;4.00;;
33162;SDS011;29282;45.656;11.302;2023-12-14T12:42:24;5.53;;;3.67;;
33162;SDS011;29282;45.656;11.302;2023-12-14T12:44:50;5.65;;;3.75;;
33162;SDS011;29282;45.656;11.302;2023-12-14T12:47:16;6.85;;;4.00;;
33162;SDS011;29282;45.656;11.302;2023-12-14T12:49:42;9.55;;;4.35;;
33162;SDS011;29282;45.656;11.302;2023-12-14T12:52:07;6.93;;;4.18;;
33162;SDS011;29282;45.656;11.302;2023-12-14T12:54:32;7.93;;;4.00;;
33162;SDS011;29282;45.656;11.302;2023-12-14T12:56:59;10.43;;;4.18;;
33162;SDS011;29282;45.656;11.302;2023-12-14T12:59:24;9.57;;;3.75;;
33162;SDS011;29282;45.656;11.302;2023-12-14T13:01:50;12.70;;;4.00;;
33162;SDS011;29282;45.656;11.302;2023-12-14T13:04:19;10.80;;;4.25;;
33162;SDS011;29282;45.656;11.302;2023-12-14T13:06:48;9.85;;;3.92;;
33162;SDS011;29282;45.656;11.302;2023-12-14T13:09:14;10.93;;;4.22;;
33162;SDS011;29282;45.656;11.302;2023-12-14T13:11:41;10.60;;;4.40;;
33162;SDS011;29282;45.656;11.302;2023-12-14T13:14:08;7.80;;;3.90;;
33162;SDS011;29282;45.656;11.302;2023-12-14T13:16:37;6.57;;;4.13;;
33162;SDS011;29282;45.656;11.302;2023-12-14T13:19:04;6.68;;;3.30;;
33162;SDS011;29282;45.656;11.302;2023-12-14T13:21:31;10.02;;;3.67;;
33162;SDS011;29282;45.656;11.302;2023-12-14T13:24:00;9.40;;;4.03;;
33162;SDS011;29282;45.656;11.302;2023-12-14T13:26:26;12.65;;;3.80;;
33162;SDS011;29282;45.656;11.302;2023-12-14T13:28:52;7.65;;;3.75;;
33162;SDS011;29282;45.656;11.302;2023-12-14T13:31:17;6.07;;;3.83;;
33162;SDS011;29282;45.656;11.302;2023-12-14T13:33:44;11.50;;;4.13;;
33162;SDS011;29282;45.656;11.302;2023-12-14T13:36:11;6.60;;;4.28;;
33162;SDS011;29282;45.656;11.302;2023-12-14T13:38:37;8.02;;;3.40;;
33162;SDS011;29282;45.656;11.302;2023-12-14T13:41:02;9.38;;;3.60;;
33162;SDS011;29282;45.656;11.302;2023-12-14T13:43:28;6.18;;;3.40;;
33162;SDS011;29282;45.656;11.302;2023-12-14T13:45:54;6.68;;;4.07;;
33162;SDS011;29282;45.656;11.302;2023-12-14T13:48:23;6.93;;;3.72;;
33162;SDS011;29282;45.656;11.302;2023-12-14T13:50:49;7.32;;;3.78;;
33162;SDS011;29282;45.656;11.302;2023-12-14T13:53:15;6.35;;;3.70;;
33162;SDS011;29282;45.656;11.302;2023-12-14T13:55:40;6.28;;;3.70;;
33162;SDS011;29282;45.656;11.302;2023-12-14T13:58:06;6.53;;;3.75;;
33162;SDS011;29282;45.656;11.302;2023-12-14T14:00:31;6.97;;;3.70;;
33162;SDS011;29282;45.656;11.302;2023-12-14T14:02:59;8.27;;;4.10;;
33162;SDS011;29282;45.656;11.302;2023-12-14T14:05:31;7.15;;;3.67;;
33162;SDS011;29282;45.656;11.302;2023-12-14T14:07:57;5.20;;;3.47;;
33162;SDS011;29282;45.656;11.302;2023-12-14T14:10:23;6.80;;;3.83;;
33162;SDS011;29282;45.656;11.302;2023-12-14T14:12:48;7.97;;;3.97;;
33162;SDS011;29282;45.656;11.302;2023-12-14T14:15:15;9.18;;;4.28;;
33162;SDS011;29282;45.656;11.302;2023-12-14T14:17:40;5.70;;;3.63;;
33162;SDS011;29282;45.656;11.302;2023-12-14T14:20:06;7.50;;;4.30;;
33162;SDS011;29282;45.656;11.302;2023-12-14T14:22:33;9.00;;;4.05;;
33162;SDS011;29282;45.656;11.302;2023-12-14T14:24:59;9.07;;;3.97;;
33162;SDS011;29282;45.656;11.302;2023-12-14T14:27:25;5.85;;;3.90;;
33162;SDS011;29282;45.656;11.302;2023-12-14T14:29:50;7.35;;;3.78;;
33162;SDS011;29282;45.656;11.302;2023-12-14T14:32:19;7.50;;;3.78;;